Suceava Stefan cel Mare Airport

LRSV · Suceava, Romania

Storia di METAR LRSV · Suceava Stefan cel Mare Airport

Di seguito sono riportati i METAR degli ultimi giorni. Seleziona un anno per sfogliare i METAR più vecchi, dall'anno 2007 in poi.

19 luglio 2024

Tempo Codice Tempo meteorologico Temp. Vista Base nuvolosa Vento METAR/SPECI
11:00
V
25 °C 10 km+ - 030° 030° 9 kt METAR LRSV 190800Z 03009KT 360V060 CAVOK 25/15 Q1020
10:30
V
24 °C 10 km+ - 010° 010° 9 kt METAR LRSV 190730Z 01009KT CAVOK 24/16 Q1020
10:00
V
24 °C 10 km+ - 350° 350° 7 kt METAR LRSV 190700Z 35007KT CAVOK 24/17 Q1021
09:30
V
23 °C 10 km+ - 350° 350° 8 kt METAR LRSV 190630Z 35008KT CAVOK 23/17 Q1021
09:00
V
22 °C 10 km+ - 350° 350° 7 kt METAR LRSV 190600Z 35007KT CAVOK 22/17 Q1021
08:30
V
22 °C 10 km+ - 350° 350° 8 kt METAR LRSV 190530Z 35008KT CAVOK 22/18 Q1021
08:00
V
22 °C 10 km+ - 350° 350° 8 kt METAR LRSV 190500Z 35008KT CAVOK 22/18 Q1021
07:30
V
21 °C 10 km+ - 340° 340° 7 kt METAR LRSV 190430Z 34007KT CAVOK 21/18 Q1021
07:00
V
21 °C 10 km+ - 340° 340° 9 kt METAR LRSV 190400Z 34009KT CAVOK 21/18 Q1021
06:30
V
21 °C 10 km+ - 330° 330° 8 kt METAR LRSV 190330Z 33008KT CAVOK 21/18 Q1020
06:00
V
21 °C 10 km+ - 340° 340° 7 kt METAR LRSV 190300Z 34007KT CAVOK 21/18 Q1020
05:30
V
20 °C 10 km+ - 330° 330° 8 kt METAR LRSV 190230Z 33008KT CAVOK 20/18 Q1020
05:00
V
20 °C 10 km+ - 350° 350° 9 kt METAR LRSV 190200Z 35009KT CAVOK 20/18 Q1020
04:30
V
20 °C 10 km+ - 330° 330° 8 kt METAR LRSV 190130Z 33008KT CAVOK 20/18 Q1020
04:00
V
21 °C 10 km+ - 340° 340° 7 kt METAR LRSV 190100Z 34007KT CAVOK 21/18 Q1020
03:30
V
21 °C 10 km+ - 340° 340° 7 kt METAR LRSV 190030Z 34007KT 9999 SCT040 21/18 Q1020
03:00
V
22 °C 10 km+ - 340° 340° 7 kt METAR LRSV 190000Z 34007KT 9999 SCT040 22/18 Q1020
02:30
V
22 °C 10 km+ - 330° 330° 8 kt METAR LRSV 182330Z 33008KT 9999 SCT036 22/19 Q1021
02:00
V
22 °C 10 km+ - 330° 330° 8 kt METAR LRSV 182300Z 33008KT CAVOK 22/19 Q1021
01:30
V
22 °C 10 km+ - 330° 330° 8 kt METAR LRSV 182230Z 33008KT CAVOK 22/19 Q1021
01:00
V
22 °C 10 km+ - 330° 330° 8 kt METAR LRSV 182200Z 33008KT CAVOK 22/19 Q1021
00:30
V
22 °C 10 km+ - 330° 330° 9 kt METAR LRSV 182130Z 33009KT CAVOK 22/19 Q1021
00:00
V
23 °C 10 km+ - 340° 340° 9 kt METAR LRSV 182100Z 34009KT CAVOK 23/19 Q1021

18 luglio 2024

Tempo Codice Tempo meteorologico Temp. Vista Base nuvolosa Vento METAR/SPECI
23:30
V
23 °C 10 km+ - 340° 340° 10 kt METAR LRSV 182030Z 34010KT 9999 FEW036 23/19 Q1021
23:00
V
24 °C 10 km+ - 340° 340° 12 kt METAR LRSV 182000Z 34012KT 9999 SCT036 24/19 Q1021
22:30
V
25 °C 10 km+ - 340° 340° 11 kt METAR LRSV 181930Z 34011KT 9999 SCT040 25/19 Q1021
22:00
V
25 °C 10 km+ - 340° 340° 11 kt METAR LRSV 181900Z 34011KT 9999 SCT040 25/19 Q1021
21:30
V
26 °C 10 km+ - 330° 330° 9 kt METAR LRSV 181830Z 33009KT 9999 SCT040 26/19 Q1020
21:00
V
26 °C 10 km+ - 330° 330° 9 kt METAR LRSV 181800Z 33009KT 9999 SCT040 26/19 Q1020
20:30
V
27 °C 10 km+ - 330° 330° 11 kt METAR LRSV 181730Z 33011KT 9999 SCT035 27/19 Q1020
20:00
V
27 °C 10 km+ - 330° 330° 9 kt METAR LRSV 181700Z 33009KT 9999 FEW035 27/18 Q1019
19:30
V
28 °C 10 km+ - 330° 330° 10 kt METAR LRSV 181630Z 33010KT 9999 FEW035 28/18 Q1019
19:00
V
29 °C 10 km+ - 350° 350° 10 kt METAR LRSV 181600Z 35010KT 9999 FEW035 29/18 Q1019
18:30
V
29 °C 10 km+ - 320° 320° 12 kt METAR LRSV 181530Z 32012KT CAVOK 29/18 Q1019
18:00
V
29 °C 10 km+ - 350° 350° 10 kt METAR LRSV 181500Z 35010KT CAVOK 29/18 Q1019
17:30
V
29 °C 10 km+ - 330° 330° 9 kt METAR LRSV 181430Z 33009KT 300V020 CAVOK 29/19 Q1019
17:00
V
30 °C 10 km+ - 320° 320° 9 kt METAR LRSV 181400Z 32009KT CAVOK 30/18 Q1019
16:30
V
29 °C 10 km+ - 330° 330° 9 kt METAR LRSV 181330Z 33009KT CAVOK 29/18 Q1019
16:00
V
29 °C 10 km+ - 010° 010° 8 kt METAR LRSV 181300Z 01008KT CAVOK 29/18 Q1019
15:30
V
28 °C 10 km+ - 360° 360° 11 kt METAR LRSV 181230Z 36011KT 330V030 CAVOK 28/19 Q1020
15:00
V
27 °C 10 km+ - 340° 340° 11 kt METAR LRSV 181200Z 34011KT CAVOK 27/18 Q1020
14:30
V
26 °C 10 km+ - 340° 340° 11 kt METAR LRSV 181130Z 34011KT CAVOK 26/18 Q1020
14:00
V
26 °C 10 km+ - 340° 340° 11 kt METAR LRSV 181100Z 34011KT CAVOK 26/18 Q1020
13:30
V
27 °C 10 km+ - 330° 330° 10 kt METAR LRSV 181030Z 33010KT CAVOK 27/18 Q1020
13:00
V
27 °C 10 km+ - 330° 330° 10 kt METAR LRSV 181000Z 33010KT CAVOK 27/18 Q1020
12:30
V
27 °C 10 km+ - 340° 340° 7 kt METAR LRSV 180930Z 34007KT 320V020 CAVOK 27/18 Q1020
12:00
V
26 °C 10 km+ - 330° 330° 10 kt METAR LRSV 180900Z 33010KT CAVOK 26/17 Q1020
11:30
V
26 °C 10 km+ - 340° 340° 10 kt METAR LRSV 180830Z 34010KT CAVOK 26/18 Q1020
11:00
V
27 °C 10 km+ - 350° 350° 13 kt METAR LRSV 180800Z 35013KT CAVOK 27/18 Q1020
10:30
V
27 °C 10 km+ - 350° 350° 10 kt METAR LRSV 180730Z 35010KT CAVOK 27/17 Q1020
10:00
V
27 °C 10 km+ - 340° 340° 11 kt METAR LRSV 180700Z 34011KT CAVOK 27/17 Q1019
09:30
V
27 °C 10 km+ - 350° 350° 7 kt METAR LRSV 180630Z 35007KT CAVOK 27/19 Q1020
09:00
V
26 °C 10 km+ - 040° 040° 5 kt METAR LRSV 180600Z 04005KT CAVOK 26/19 Q1019
08:30
V
26 °C 10 km+ - 360° 360° 5 kt METAR LRSV 180530Z 36005KT 300V050 CAVOK 26/18 Q1019
08:00
V
25 °C 10 km+ - 270° 270° 8 kt METAR LRSV 180500Z 27008KT CAVOK 25/19 Q1019
07:30
V
23 °C 10 km+ - 250° 250° 9 kt METAR LRSV 180430Z 25009KT CAVOK 23/19 Q1020
07:00
V
24 °C 10 km+ - 270° 270° 7 kt METAR LRSV 180400Z 27007KT CAVOK 24/18 Q1019
06:30
V
23 °C 10 km+ - 320° 320° 7 kt METAR LRSV 180330Z 32007KT CAVOK 23/17 Q1019
06:00
V
22 °C 10 km+ - 300° 300° 8 kt METAR LRSV 180300Z 30008KT CAVOK 22/17 Q1019
05:30
V
22 °C 10 km+ - 290° 290° 4 kt METAR LRSV 180230Z 29004KT CAVOK 22/18 Q1019
05:00
V
22 °C 10 km+ - 320° 320° 6 kt METAR LRSV 180200Z 32006KT 280V340 CAVOK 22/18 Q1019
04:30
V
23 °C 10 km+ - 320° 320° 8 kt METAR LRSV 180130Z 32008KT CAVOK 23/18 Q1019
04:00
V
23 °C 10 km+ - 300° 300° 10 kt METAR LRSV 180100Z 30010KT CAVOK 23/18 Q1019
03:30
V
23 °C 10 km+ - 310° 310° 10 kt METAR LRSV 180030Z 31010KT CAVOK 23/18 Q1019
03:00
V
23 °C 10 km+ - 290° 290° 12 kt METAR LRSV 180000Z 29012KT CAVOK 23/17 Q1019
02:30
V
22 °C 10 km+ - 270° 270° 8 kt METAR LRSV 172330Z 27008KT CAVOK 22/17 Q1019
02:00
V
22 °C 10 km+ - 290° 290° 7 kt METAR LRSV 172300Z 29007KT CAVOK 22/17 Q1019
01:30
V
21 °C 10 km+ - 290° 290° 6 kt METAR LRSV 172230Z 29006KT CAVOK 21/17 Q1019
01:00
V
22 °C 10 km+ - 250° 250° 4 kt METAR LRSV 172200Z 25004KT CAVOK 22/16 Q1019
00:30
V
23 °C 10 km+ - 070° 070° 3 kt METAR LRSV 172130Z 07003KT CAVOK 23/16 Q1019
00:00
V
22 °C 10 km+ - 130° 130° 4 kt METAR LRSV 172100Z 13004KT CAVOK 22/16 Q1019

17 luglio 2024

Tempo Codice Tempo meteorologico Temp. Vista Base nuvolosa Vento METAR/SPECI
23:30
V
22 °C 10 km+ - 080° 080° 4 kt METAR LRSV 172030Z 08004KT CAVOK 22/16 Q1018
23:00
V
23 °C 10 km+ - 060° 060° 8 kt METAR LRSV 172000Z 06008KT CAVOK 23/17 Q1018
22:30
V
23 °C 10 km+ - 260° 260° 5 kt METAR LRSV 171930Z 26005KT CAVOK 23/17 Q1018
22:00
V
24 °C 10 km+ - 270° 270° 7 kt METAR LRSV 171900Z 27007KT CAVOK 24/17 Q1018
21:30
V
24 °C 10 km+ - 270° 270° 5 kt METAR LRSV 171830Z 27005KT CAVOK 24/17 Q1018
21:00
V
24 °C 10 km+ - 260° 260° 8 kt METAR LRSV 171800Z 26008KT 9999 FEW045CB 24/16 Q1018
20:30
V
25 °C 10 km+ - 240° 240° 9 kt METAR LRSV 171730Z 24009KT 9999 FEW045CB 25/16 Q1018
20:00
V
26 °C 10 km+ - 220° 220° 8 kt METAR LRSV 171700Z 22008KT 9999 FEW040CB 26/16 Q1018
19:30
V
26 °C 10 km+ - 180° 180° 10 kt METAR LRSV 171630Z 18010KT 9999 FEW040CB 26/17 Q1018
19:00
V
26 °C 10 km+ - 130° 130° 15 kt METAR LRSV 171600Z 13015KT 9999 SCT035CB 26/16 Q1019
18:30
V
27 °C 10 km+ - 120° 120° 20 kt METAR LRSV 171530Z 12020KT 9999 SCT035CB 27/17 Q1019
18:00
V
29 °C 10 km+ - 350° 350° 12 kt METAR LRSV 171500Z 35012KT 9999 FEW035CB 29/20 Q1019
17:30
V
29 °C 10 km+ - 350° 350° 13 kt METAR LRSV 171430Z 35013KT 9999 SCT035CB 29/20 Q1019
17:00
V
29 °C 10 km+ - 320° 320° 14 kt METAR LRSV 171400Z 32014KT 9999 SCT035CB 29/20 Q1018
16:30
V
29 °C 10 km+ - 300° 300° 15 kt METAR LRSV 171330Z 30015KT 9999 SCT035CB 29/20 Q1018
16:00
V
30 °C 10 km+ - 320° 320° 15 kt METAR LRSV 171300Z 32015KT 9999 SCT035CB 30/19 Q1018
15:30
V
30 °C 10 km+ - 320° 320° 15 kt METAR LRSV 171230Z 32015KT 9999 SCT035CB 30/20 Q1018
15:00
V
31 °C 10 km+ - 330° 330° 16 kt METAR LRSV 171200Z 33016KT 9999 FEW035CB 31/21 Q1018
14:30
V
32 °C 10 km+ - 350° 350° 14 kt METAR LRSV 171130Z 35014KT 9999 FEW035CB 32/21 Q1018
14:00
V
32 °C 10 km+ - 330° 330° 13 kt METAR LRSV 171100Z 33013KT 9999 FEW035CB 32/21 Q1018
13:30
V
32 °C 10 km+ - 350° 350° 11 kt METAR LRSV 171030Z 35011KT 9999 FEW035TCU 32/20 Q1018
13:00
V
32 °C 10 km+ - 350° 350° 12 kt METAR LRSV 171000Z 35012KT 9999 FEW035TCU 32/21 Q1018
12:30
V
32 °C 10 km+ - 010° 010° 10 kt METAR LRSV 170930Z 01010KT CAVOK 32/21 Q1018
12:00
V
32 °C 10 km+ - 010° 010° 9 kt METAR LRSV 170900Z 01009KT CAVOK 32/21 Q1018
11:30
V
32 °C 10 km+ - 270° 270° 3 kt METAR LRSV 170830Z 27003KT 180V340 CAVOK 32/18 Q1018
11:00
V
32 °C 10 km+ - Var Var 3 kt METAR LRSV 170800Z VRB03KT CAVOK 32/19 Q1018
10:30
V
31 °C 10 km+ - 270° 270° 6 kt METAR LRSV 170730Z 27006KT CAVOK 31/19 Q1017
10:00
V
30 °C 10 km+ - 250° 250° 3 kt METAR LRSV 170700Z 25003KT 180V300 CAVOK 30/20 Q1017
09:30
V
29 °C 10 km+ - 250° 250° 3 kt METAR LRSV 170630Z 25003KT 200V280 CAVOK 29/20 Q1017
09:00
V
29 °C 10 km+ - Var Var 2 kt METAR LRSV 170600Z VRB02KT CAVOK 29/19 Q1017
Segnala modifiche